Liverpool John Lennon Airport

EGGP · 英格兰, 英国

罗盘
风向 的 Liverpool John Lennon Airport 9/27
风: 4 kt, 2 beaufort


4 kt
改变
0 ft 1.000 2.000 3.000 4.000 5.000
Cloud Cloud
FEW 4.000
METAR EGGP 201120Z VRB04KT 9999 FEW040 19/10 Q1020

METAR Liverpool John Lennon Airport - EGGP/LPL

Liverpool John Lennon Airport是,英国中的中型机场。 该机场位于纬度53,33365和经度-2,84936。 该机场有一条跑道: 9/27. 本场的ICAO机场代码为EGGP。 该机场的IATA代码为LPL。 机场在London FIR中。

该航空气象观测是针对Liverpool John Lennon Airport在2024年6月20日 12:20, 当地时间进行的。

机场观察

可变方向的风很小或没有风。

可见度为10 km 或者更多。

有几云在4.000 ft的高度。 没有观察到天花板。

温度和风寒是19 °C。 露点为10 °C,相对湿度为56%。 海平面上的气压为1020 hPa (QNH)。

白天

今天,太阳从04:43升起,在21:43降落。 这适用于Liverpool John Lennon Airport,世界夏令时可能有所不同。 当地时间与世界标准时间之间的时差为+1 小时。 夏令时目前正在进行中。

公司介绍

在这个机场,你可以找到飞行学校。 这个机场上的公司有Liverpool Flying School, Merseyflight Air Training School 和 Ravenair。

体会

到Vliegles.nl去找飞行课程,跳伞和其他飞行体验。 浏览页面,了解Liverpool John Lennon Airport附近所有可用的活动。 你也可以使用搜索功能来寻找你所在地附近的特定飞行课程、跳伞或其他飞行体验。

请勿用于飞行规划
机场可能关闭或需要事先获得许可。 真正的航向和跑道末端的坐标可能是一个估计值。 磁性航向是使用WMM2020模型从真实航向计算出来的。

跑道

Id 标题 侧风 逆风 侧风 %
9/27 085°-265° 4 kt 100 %

逆风成分最大的方向会被突出显示,并用于横风计算。 这并不一定意味着这个方向在使用。

乌云

4.000 ft FEW 几云

温度 & 天气

温度 19 °C
露点 10 °C
相对湿度 56%
Kp-index 1 (0-9)

白天

日出
04:43
中午
13:13
日落
21:43 (8:59)

小工具

你想在你的网站上有一个关于Liverpool John Lennon Airport的当前航空天气(METAR)的小部件吗?

显示HTML代码
报告变更